KFSD/FSD METAR and TAF weather

Enter ICAO airport designator
Station Type Date Time Source
KFSD METAR 2019/02/23 00:12 UTC NOAA

KFSD 230012Z 10009KT 4SM -SN BR OVC038 M04/M07 A3011 RMK AO2 P0000 T10441072


Station Type Date Time Source
KFSD Decoded METAR 2019/02/23 00:12 UTC NOAA

SIOUX FALLS FOSS FIELD, SD, United States (KFSD) 43-35N 096-45W 434M
Feb 22, 2019 - 07:12 PM EST / 2019.02.23 0012 UTC
Wind: from the E (100 degrees) at 10 MPH (9 KT):0
Visibility: 4 mile(s):0
Sky conditions: overcast
Weather: light snow; mist
Precipitation last hour: A trace
Temperature: 24.1 F (-4.4 C)
Windchill: 14 F (-10 C):1
Dew Point: 19.0 F (-7.2 C)
Relative Humidity: 80%
Pressure (altimeter): 30.11 in. Hg (1019 hPa)
ob: KFSD 230012Z 10009KT 4SM -SN BR OVC038 M04/M07 A3011 RMK AO2 P0000 T10441072
cycle: 0

Station Type Date Time Source
KFSD TAF 2019/02/22 18:40 UTC NOAA

TAF KFSD 221738Z 2218/2318 13010KT P6SM BKN070
FM222100 13011G17KT P6SM VCSH BKN070
FM230000 12011KT 1 1/2SM BR OVC030
FM230200 12010G15KT 4SM BR OVC029
FM230600 13008KT 4SM -FZDZSN OVC004
FM231000 12006KT 4SM -FZDZ OVC003
FM231600 02007KT P6SM OVC006


Example: see airport list